createdAt,value
2023-04-30T04:00:40.346Z,101444.00
2023-04-30T04:03:10.457Z,101458.00
2023-04-30T04:05:38.943Z,101467.00
2023-04-30T04:08:07.875Z,101471.00
2023-04-30T04:10:36.803Z,101473.00
2023-04-30T04:13:05.268Z,101479.00
2023-04-30T04:15:33.496Z,101475.00
2023-04-30T04:18:01.952Z,101479.00
2023-04-30T04:20:31.523Z,101471.00
2023-04-30T04:22:59.846Z,101488.00
2023-04-30T04:25:28.648Z,101478.00
2023-04-30T04:27:56.903Z,101481.00
2023-04-30T04:30:25.121Z,101493.00
2023-04-30T04:32:54.012Z,101493.00
2023-04-30T04:35:22.739Z,101486.00
2023-04-30T04:37:52.327Z,101492.00
2023-04-30T04:40:20.831Z,101482.00
2023-04-30T04:42:51.407Z,101499.00
2023-04-30T04:45:20.490Z,101489.00
2023-04-30T04:47:49.416Z,101505.00
2023-04-30T04:50:18.080Z,101503.00
2023-04-30T04:52:46.319Z,101498.00
2023-04-30T04:55:16.114Z,101522.00
2023-04-30T04:57:44.323Z,101517.00
2023-04-30T05:00:14.092Z,101528.00
2023-04-30T05:02:42.400Z,101531.00
2023-04-30T05:05:11.510Z,101528.00
2023-04-30T05:07:39.731Z,101531.00
2023-04-30T05:10:10.363Z,101531.00
2023-04-30T05:12:39.926Z,101532.00
2023-04-30T05:15:09.533Z,101543.00
2023-04-30T05:17:37.816Z,101545.00
2023-04-30T05:20:08.670Z,101543.00
2023-04-30T05:22:36.886Z,101549.00
2023-04-30T05:25:05.967Z,101551.00
2023-04-30T05:27:34.216Z,101559.00
2023-04-30T05:30:04.359Z,101561.00
2023-04-30T05:32:32.619Z,101563.00
2023-04-30T05:35:00.910Z,101566.00
2023-04-30T05:37:29.179Z,101567.00
2023-04-30T05:39:57.388Z,101579.00
2023-04-30T05:42:25.873Z,101569.00
2023-04-30T05:44:55.461Z,101572.00
2023-04-30T05:47:25.092Z,101577.00
2023-04-30T05:49:53.810Z,101579.00
2023-04-30T05:52:22.151Z,101584.00
2023-04-30T05:54:50.641Z,101580.00
2023-04-30T05:57:18.986Z,101586.00
2023-04-30T05:59:47.237Z,101590.00
2023-04-30T06:02:15.706Z,101590.00
2023-04-30T06:04:45.533Z,101579.00
2023-04-30T06:07:14.171Z,101592.00
2023-04-30T06:09:42.341Z,101594.00
2023-04-30T06:12:11.109Z,101592.00
2023-04-30T06:14:39.615Z,101599.00
2023-04-30T06:17:07.837Z,101602.00
2023-04-30T06:19:36.145Z,101608.00
2023-04-30T06:22:06.215Z,101606.00
2023-04-30T06:24:34.452Z,101590.00
2023-04-30T06:27:02.931Z,101619.00
2023-04-30T06:29:31.175Z,101613.00
2023-04-30T06:31:59.508Z,101616.00
2023-04-30T06:34:27.806Z,101621.00
2023-04-30T06:36:56.447Z,101620.00
2023-04-30T06:39:26.592Z,101615.00
2023-04-30T06:41:54.778Z,101623.00
2023-04-30T06:44:23.069Z,101619.00
2023-04-30T06:46:51.599Z,101602.00
2023-04-30T06:49:19.728Z,101620.00
2023-04-30T06:51:47.854Z,101619.00
2023-04-30T06:54:16.320Z,101622.00
2023-04-30T06:56:45.924Z,101618.00
2023-04-30T06:59:14.072Z,101627.00
2023-04-30T07:01:42.258Z,101624.00
2023-04-30T07:04:10.515Z,101622.00
2023-04-30T07:06:38.814Z,101603.00
2023-04-30T07:09:07.091Z,101622.00
2023-04-30T07:11:35.345Z,101617.00
2023-04-30T07:14:05.019Z,101607.00
2023-04-30T07:16:34.186Z,101624.00
2023-04-30T07:19:02.482Z,101607.00
2023-04-30T07:21:32.769Z,101614.00
2023-04-30T07:24:01.098Z,101625.00
2023-04-30T07:26:29.341Z,101617.00
2023-04-30T07:28:57.592Z,101622.00
2023-04-30T07:31:28.116Z,101630.00
2023-04-30T07:33:56.375Z,101629.00
2023-04-30T07:36:26.611Z,101628.00
2023-04-30T07:38:54.912Z,101621.00
2023-04-30T07:41:23.141Z,101621.00
2023-04-30T07:43:51.442Z,101632.00
2023-04-30T07:46:19.764Z,101623.00
2023-04-30T07:48:49.373Z,101627.00
2023-04-30T07:51:18.060Z,101614.00
2023-04-30T07:53:47.000Z,101636.00
2023-04-30T07:56:15.277Z,101633.00
2023-04-30T07:58:43.692Z,101627.00
2023-04-30T08:01:11.920Z,101629.00
2023-04-30T08:03:40.420Z,101639.00
2023-04-30T08:06:10.222Z,101637.00
2023-04-30T08:08:39.576Z,101636.00
2023-04-30T08:11:07.957Z,101635.00
2023-04-30T08:13:36.749Z,101645.00
2023-04-30T08:16:06.043Z,101649.00
2023-04-30T08:18:34.327Z,101645.00
2023-04-30T08:21:02.674Z,101636.00
2023-04-30T08:23:32.433Z,101644.00
2023-04-30T08:26:00.555Z,101650.00
2023-04-30T08:28:28.811Z,101651.00
2023-04-30T08:30:57.119Z,101651.00
2023-04-30T08:33:25.336Z,101636.00
2023-04-30T08:35:53.884Z,101647.00
2023-04-30T08:38:22.130Z,101636.00
2023-04-30T08:41:07.593Z,101645.00
2023-04-30T08:43:36.781Z,101651.00
2023-04-30T08:46:06.979Z,101652.00
2023-04-30T08:48:36.260Z,101653.00
2023-04-30T08:51:05.702Z,101647.00
2023-04-30T08:53:38.216Z,101642.00
2023-04-30T08:56:10.886Z,101649.00
2023-04-30T08:58:39.583Z,101649.00
2023-04-30T09:01:09.734Z,101633.00
2023-04-30T09:03:38.473Z,101650.00
2023-04-30T09:06:06.954Z,101641.00
2023-04-30T09:08:46.933Z,101650.00
2023-04-30T09:11:28.874Z,101654.00
2023-04-30T09:13:58.938Z,101651.00
2023-04-30T09:16:30.780Z,101657.00
2023-04-30T09:18:59.188Z,101649.00
2023-04-30T09:21:37.771Z,101661.00
2023-04-30T09:24:08.109Z,101656.00
2023-04-30T09:26:39.646Z,101657.00
2023-04-30T09:29:08.853Z,101660.00
2023-04-30T09:31:38.951Z,101661.00
2023-04-30T09:34:07.561Z,101654.00
2023-04-30T09:36:36.222Z,101652.00
2023-04-30T09:39:14.221Z,101663.00
2023-04-30T09:41:45.259Z,101660.00
2023-04-30T09:44:29.584Z,101662.00
2023-04-30T09:46:59.250Z,101661.00
2023-04-30T09:49:28.235Z,101663.00
2023-04-30T09:51:57.675Z,101653.00
2023-04-30T09:54:28.821Z,101659.00
2023-04-30T09:57:01.466Z,101652.00
2023-04-30T09:59:32.318Z,101652.00
2023-04-30T10:02:02.006Z,101647.00
2023-04-30T10:04:35.090Z,101646.00
2023-04-30T10:07:07.938Z,101631.00
2023-04-30T10:09:42.464Z,101651.00
2023-04-30T10:12:16.777Z,101638.00
2023-04-30T10:14:53.455Z,101645.00
2023-04-30T10:17:28.170Z,101642.00
2023-04-30T10:20:05.505Z,101646.00
2023-04-30T10:22:35.942Z,101641.00
2023-04-30T10:25:04.834Z,101644.00
2023-04-30T10:27:35.448Z,101644.00
2023-04-30T10:30:04.356Z,101651.00
2023-04-30T10:32:43.136Z,101643.00
2023-04-30T10:35:20.935Z,101645.00
2023-04-30T10:37:56.163Z,101637.00
2023-04-30T10:40:27.760Z,101627.00
2023-04-30T10:42:57.558Z,101630.00
2023-04-30T10:45:38.170Z,101630.00
2023-04-30T10:48:08.345Z,101634.00
2023-04-30T10:50:45.805Z,101628.00
2023-04-30T10:53:16.850Z,101616.00
2023-04-30T10:55:50.176Z,101621.00
2023-04-30T10:58:32.199Z,101630.00
2023-04-30T11:01:07.043Z,101629.00
2023-04-30T11:03:37.395Z,101629.00
2023-04-30T11:06:14.622Z,101627.00
2023-04-30T11:08:47.036Z,101629.00
2023-04-30T11:11:21.748Z,101625.00
2023-04-30T11:14:02.689Z,101629.00
2023-04-30T11:16:31.963Z,101621.00
2023-04-30T11:19:10.067Z,101625.00
2023-04-30T11:21:42.365Z,101623.00
2023-04-30T11:24:11.126Z,101626.00
2023-04-30T11:27:06.671Z,101629.00
2023-04-30T11:29:37.588Z,101630.00
2023-04-30T11:32:06.670Z,101617.00
2023-04-30T11:34:36.378Z,101625.00
2023-04-30T11:37:04.968Z,101621.00
2023-04-30T11:39:37.572Z,101629.00
2023-04-30T11:42:05.839Z,101623.00
2023-04-30T11:44:35.834Z,101623.00
2023-04-30T11:47:04.199Z,101626.00
2023-04-30T11:49:33.460Z,101627.00
2023-04-30T11:52:02.001Z,101628.00
2023-04-30T11:54:33.346Z,101631.00
2023-04-30T11:57:04.253Z,101622.00
2023-04-30T11:59:33.707Z,101620.00
2023-04-30T12:02:03.253Z,101627.00
2023-04-30T12:04:31.673Z,101636.00
2023-04-30T12:07:02.339Z,101629.00
2023-04-30T12:09:31.004Z,101633.00
2023-04-30T12:11:59.364Z,101636.00
2023-04-30T12:14:29.526Z,101637.00
2023-04-30T12:16:59.940Z,101637.00
2023-04-30T12:19:29.720Z,101628.00
2023-04-30T12:21:58.029Z,101643.00
2023-04-30T12:24:29.237Z,101644.00
2023-04-30T12:27:00.697Z,101644.00
2023-04-30T12:29:29.162Z,101643.00
2023-04-30T12:31:58.069Z,101638.00
2023-04-30T12:34:33.716Z,101644.00
2023-04-30T12:37:03.688Z,101636.00
2023-04-30T12:39:36.484Z,101646.00
2023-04-30T12:42:05.353Z,101647.00
2023-04-30T12:44:43.206Z,101647.00
2023-04-30T12:47:11.769Z,101640.00
2023-04-30T12:49:41.923Z,101640.00
2023-04-30T12:52:13.146Z,101637.00
2023-04-30T12:54:42.188Z,101640.00
2023-04-30T12:57:11.947Z,101632.00
2023-04-30T12:59:42.246Z,101630.00
2023-04-30T13:02:12.836Z,101639.00
2023-04-30T13:04:43.567Z,101639.00
2023-04-30T13:07:12.579Z,101638.00
2023-04-30T13:09:41.096Z,101637.00
2023-04-30T13:12:09.919Z,101627.00
2023-04-30T13:14:38.641Z,101628.00
2023-04-30T13:17:09.761Z,101641.00
2023-04-30T13:19:38.259Z,101643.00
2023-04-30T13:22:08.096Z,101633.00
2023-04-30T13:24:37.304Z,101632.00
2023-04-30T13:27:05.991Z,101634.00
2023-04-30T13:29:34.533Z,101640.00
2023-04-30T13:32:04.394Z,101631.00
2023-04-30T13:34:33.015Z,101634.00
2023-04-30T13:37:01.669Z,101633.00
2023-04-30T13:39:31.559Z,101625.00
2023-04-30T13:42:00.072Z,101630.00
2023-04-30T13:44:28.642Z,101626.00
2023-04-30T13:46:57.219Z,101631.00
2023-04-30T13:49:26.024Z,101625.00
2023-04-30T13:51:54.528Z,101619.00
2023-04-30T13:54:23.127Z,101619.00
2023-04-30T13:56:53.032Z,101617.00
2023-04-30T13:59:21.920Z,101608.00
2023-04-30T14:01:50.498Z,101608.00
2023-04-30T14:04:19.012Z,101604.00
2023-04-30T14:06:49.317Z,101608.00
2023-04-30T14:09:18.051Z,101612.00
2023-04-30T14:11:46.521Z,101608.00
2023-04-30T14:14:16.691Z,101608.00
2023-04-30T14:16:45.764Z,101603.00
2023-04-30T14:19:14.297Z,101601.00
2023-04-30T14:21:43.350Z,101594.00
2023-04-30T14:24:12.486Z,101588.00
2023-04-30T14:26:41.705Z,101590.00
2023-04-30T14:29:10.273Z,101585.00
2023-04-30T14:31:40.221Z,101589.00
2023-04-30T14:34:08.767Z,101590.00
2023-04-30T14:36:38.199Z,101595.00
2023-04-30T14:39:07.335Z,101593.00
2023-04-30T14:41:37.575Z,101592.00
2023-04-30T14:44:06.629Z,101584.00
2023-04-30T14:46:35.332Z,101579.00
2023-04-30T14:49:05.649Z,101583.00
2023-04-30T14:51:34.330Z,101587.00
2023-04-30T14:54:03.454Z,101584.00
2023-04-30T14:56:32.122Z,101582.00
2023-04-30T14:59:00.651Z,101580.00
2023-04-30T15:01:30.364Z,101585.00
2023-04-30T15:03:58.983Z,101579.00
2023-04-30T15:06:29.595Z,101580.00
2023-04-30T15:08:58.094Z,101572.00
2023-04-30T15:11:26.860Z,101580.00
2023-04-30T15:13:55.585Z,101579.00
2023-04-30T15:16:24.171Z,101578.00
2023-04-30T15:18:52.830Z,101583.00
2023-04-30T15:21:21.360Z,101574.00
2023-04-30T15:23:51.384Z,101571.00
2023-04-30T15:26:19.950Z,101567.00
2023-04-30T15:28:48.511Z,101573.00
2023-04-30T15:31:17.128Z,101571.00
2023-04-30T15:33:45.707Z,101561.00
2023-04-30T15:36:14.214Z,101571.00
2023-04-30T15:38:42.804Z,101573.00
2023-04-30T15:41:12.607Z,101572.00
2023-04-30T15:43:41.014Z,101570.00
2023-04-30T15:46:09.633Z,101568.00
2023-04-30T15:48:38.246Z,101570.00
2023-04-30T15:51:06.753Z,101566.00
2023-04-30T15:53:35.274Z,101567.00
2023-04-30T15:56:04.495Z,101570.00
2023-04-30T15:58:34.358Z,101569.00
2023-04-30T16:01:02.964Z,101556.00
2023-04-30T16:03:31.869Z,101559.00
2023-04-30T16:06:02.803Z,101563.00
2023-04-30T16:08:32.499Z,101560.00
2023-04-30T16:11:01.961Z,101556.00
2023-04-30T16:13:30.602Z,101555.00
2023-04-30T16:16:00.540Z,101558.00
2023-04-30T16:18:29.857Z,101553.00
2023-04-30T16:20:58.527Z,101546.00
2023-04-30T16:23:27.177Z,101555.00
2023-04-30T16:25:56.509Z,101546.00
2023-04-30T16:28:28.155Z,101542.00
2023-04-30T16:30:57.445Z,101542.00
2023-04-30T16:33:28.053Z,101541.00
2023-04-30T16:35:56.775Z,101539.00
2023-04-30T16:38:25.559Z,101532.00
2023-04-30T16:40:54.903Z,101539.00
2023-04-30T16:43:23.588Z,101542.00
2023-04-30T16:45:52.467Z,101536.00
2023-04-30T16:48:21.078Z,101536.00
2023-04-30T16:50:51.450Z,101538.00
2023-04-30T16:53:20.640Z,101535.00
2023-04-30T16:55:49.102Z,101529.00
2023-04-30T16:58:17.696Z,101521.00
2023-04-30T17:00:46.356Z,101515.00
2023-04-30T17:03:14.979Z,101507.00
2023-04-30T17:05:43.994Z,101500.00
2023-04-30T17:08:13.826Z,101498.00
2023-04-30T17:10:42.597Z,101504.00
2023-04-30T17:13:11.314Z,101502.00
2023-04-30T17:15:39.817Z,101494.00
2023-04-30T17:18:10.606Z,101496.00
2023-04-30T17:20:39.376Z,101500.00
2023-04-30T17:23:08.238Z,101500.00
2023-04-30T17:25:38.558Z,101506.00
2023-04-30T17:28:07.325Z,101509.00
2023-04-30T17:30:36.109Z,101502.00
2023-04-30T17:33:05.938Z,101516.00
2023-04-30T17:35:34.674Z,101512.00
2023-04-30T17:38:03.559Z,101507.00
2023-04-30T17:40:32.858Z,101508.00
2023-04-30T17:43:02.701Z,101513.00
2023-04-30T17:45:31.269Z,101515.00
2023-04-30T17:47:59.791Z,101509.00
2023-04-30T17:50:28.507Z,101500.00
2023-04-30T17:52:57.835Z,101499.00
2023-04-30T17:55:26.988Z,101497.00
2023-04-30T17:57:55.784Z,101496.00
2023-04-30T18:00:25.724Z,101494.00
2023-04-30T18:02:54.429Z,101486.00
2023-04-30T18:05:23.121Z,101489.00
2023-04-30T18:07:51.600Z,101484.00
2023-04-30T18:10:20.143Z,101492.00
2023-04-30T18:12:48.676Z,101481.00
2023-04-30T18:15:17.311Z,101490.00
2023-04-30T18:17:47.703Z,101488.00
2023-04-30T18:20:16.402Z,101488.00
2023-04-30T18:22:44.883Z,101488.00
2023-04-30T18:25:14.468Z,101489.00
2023-04-30T18:27:43.030Z,101488.00
2023-04-30T18:30:12.775Z,101488.00
2023-04-30T18:32:44.135Z,101491.00
2023-04-30T18:35:14.791Z,101488.00
2023-04-30T18:37:43.262Z,101490.00
2023-04-30T18:40:13.072Z,101485.00
2023-04-30T18:42:41.585Z,101477.00
2023-04-30T18:45:11.741Z,101479.00
2023-04-30T18:47:40.365Z,101493.00
2023-04-30T18:50:13.316Z,101487.00
2023-04-30T18:52:44.330Z,101490.00
2023-04-30T18:55:13.920Z,101496.00
2023-04-30T18:57:43.304Z,101491.00
2023-04-30T19:00:14.174Z,101498.00
2023-04-30T19:02:43.922Z,101487.00
2023-04-30T19:05:12.740Z,101488.00
2023-04-30T19:07:42.821Z,101499.00
2023-04-30T19:10:11.555Z,101489.00
2023-04-30T19:12:40.481Z,101493.00
2023-04-30T19:15:11.578Z,101506.00
2023-04-30T19:17:40.451Z,101503.00
2023-04-30T19:20:10.284Z,101502.00
2023-04-30T19:22:38.935Z,101506.00
2023-04-30T19:25:09.798Z,101504.00
2023-04-30T19:27:38.347Z,101501.00
2023-04-30T19:30:08.249Z,101504.00
2023-04-30T19:32:38.070Z,101500.00
2023-04-30T19:35:07.630Z,101499.00
2023-04-30T19:37:36.454Z,101496.00
2023-04-30T19:40:11.951Z,101498.00
2023-04-30T19:42:40.769Z,101509.00
2023-04-30T19:45:10.735Z,101511.00
2023-04-30T19:47:39.589Z,101507.00
2023-04-30T19:50:09.653Z,101501.00
2023-04-30T19:52:38.250Z,101456.00
2023-04-30T19:55:07.634Z,101503.00
2023-04-30T19:57:38.074Z,101504.00
2023-04-30T20:00:07.770Z,101503.00
2023-04-30T20:02:36.427Z,101510.00
2023-04-30T20:05:07.018Z,101520.00
2023-04-30T20:07:35.889Z,101511.00
2023-04-30T20:10:04.522Z,101515.00
2023-04-30T20:12:33.060Z,101515.00
2023-04-30T20:15:03.456Z,101508.00
2023-04-30T20:17:33.842Z,101499.00
2023-04-30T20:20:02.606Z,101505.00
2023-04-30T20:22:31.121Z,101503.00
2023-04-30T20:25:02.411Z,101510.00
2023-04-30T20:27:30.998Z,101510.00
2023-04-30T20:29:59.627Z,101504.00
2023-04-30T20:32:29.456Z,101510.00
2023-04-30T20:34:58.698Z,101507.00
2023-04-30T20:37:27.475Z,101507.00
2023-04-30T20:39:56.338Z,101509.00
2023-04-30T20:42:26.987Z,101507.00
2023-04-30T20:44:55.675Z,101507.00
2023-04-30T20:47:24.574Z,101513.00
2023-04-30T20:49:54.950Z,101511.00
2023-04-30T20:52:23.677Z,101510.00
2023-04-30T20:54:52.171Z,101511.00
2023-04-30T20:57:20.790Z,101510.00
2023-04-30T20:59:49.322Z,101513.00
